Time;durP1;ratioP1;P1;durP2;ratioP2;P2;SDS_P1;SDS_P2;PMS_P1;PMS_P2;Temp;Humidity;BMP_temperature;BMP_pressure;BME280_temperature;BME280_humidity;BME280_pressure;Samples;Min_cycle;Max_cycle;Signal;HPM_P1;HPM_P2
2021/01/24 00:01:56;;;;;;;15.70;6.10;;;;;;;11.19;70.05;97937.59;4861231;29;20032;-76
2021/01/24 00:04:22;;;;;;;8.07;2.72;;;;;;;11.19;70.24;97937.59;4861202;29;20109;-78
2021/01/24 00:06:47;;;;;;;6.35;3.42;;;;;;;11.20;70.37;97936.50;4860341;29;20729;-78
2021/01/24 00:09:13;;;;;;;5.80;3.00;;;;;;;11.21;70.70;97941.53;4861075;29;20068;-78
2021/01/24 00:11:38;;;;;;;9.95;3.70;;;;;;;11.21;71.26;97948.78;4860386;29;20120;-81
2021/01/24 00:14:04;;;;;;;8.10;3.40;;;;;;;11.19;71.71;97943.75;4860896;29;20040;-78
2021/01/24 00:16:29;;;;;;;13.13;5.15;;;;;;;11.16;72.49;97940.91;4860226;29;20029;-76
2021/01/24 00:18:54;;;;;;;5.35;2.78;;;;;;;11.15;72.80;97948.13;4877033;29;20029;-78
2021/01/24 00:21:20;;;;;;;11.00;3.85;;;;;;;11.13;73.16;97949.53;4860229;29;20104;-79
2021/01/24 00:23:45;;;;;;;13.07;4.50;;;;;;;11.10;73.61;97928.75;4860822;29;20029;-82
2021/01/24 00:26:11;;;;;;;8.00;2.28;;;;;;;11.05;73.73;97922.41;4860752;29;20033;-82
2021/01/24 00:28:36;;;;;;;5.13;2.35;;;;;;;11.02;74.37;97925.72;4860665;29;20040;-79
2021/01/24 00:31:01;;;;;;;2.55;1.95;;;;;;;10.97;74.30;97917.78;4860388;29;20037;-76
2021/01/24 00:33:27;;;;;;;5.40;2.00;;;;;;;10.95;74.32;97914.66;4860611;29;20020;-77
2021/01/24 00:35:52;;;;;;;8.88;4.07;;;;;;;10.87;74.46;97904.69;4876418;29;20048;-77
2021/01/24 00:38:18;;;;;;;6.72;3.88;;;;;;;10.82;74.65;97910.16;4860587;29;20410;-77
2021/01/24 00:40:43;;;;;;;8.60;4.07;;;;;;;10.80;75.06;97913.16;4860103;29;20024;-77
2021/01/24 00:43:08;;;;;;;5.32;2.75;;;;;;;10.78;75.19;97896.63;4860695;29;20033;-78
2021/01/24 00:45:34;;;;;;;7.90;3.20;;;;;;;10.71;75.27;97872.19;4859919;29;20033;-78
2021/01/24 00:47:59;;;;;;;4.57;2.33;;;;;;;10.69;75.78;97874.38;4860602;29;20029;-78
2021/01/24 00:50:25;;;;;;;4.93;1.92;;;;;;;10.64;76.13;97859.22;4877463;29;20036;-76
2021/01/24 00:52:50;;;;;;;10.10;2.92;;;;;;;10.61;76.87;97843.00;4860415;29;20112;-75
2021/01/24 00:55:16;;;;;;;10.32;3.80;;;;;;;10.59;77.32;97862.03;4877606;29;20025;-77
2021/01/24 00:57:41;;;;;;;7.15;3.50;;;;;;;10.55;77.43;97843.16;4860016;29;20037;-75
2021/01/24 01:00:07;;;;;;;7.93;3.13;;;;;;;10.53;76.96;97841.88;4860181;29;20124;-80
2021/01/24 01:02:33;;;;;;;4.93;2.13;;;;;;;10.53;76.60;97853.38;4860265;29;20033;-79
2021/01/24 01:04:58;;;;;;;6.43;3.00;;;;;;;10.54;76.58;97833.53;4860340;29;20104;-78
2021/01/24 01:07:23;;;;;;;3.40;1.75;;;;;;;10.54;76.51;97830.88;4862551;29;20039;-78
2021/01/24 01:09:49;;;;;;;4.13;1.88;;;;;;;10.56;76.42;97847.41;4864048;29;20021;-86
2021/01/24 01:15:37;;;;;;;4.65;2.20;;;;;;;10.59;75.38;97837.97;4880248;29;20064;-82
2021/01/24 01:18:04;;;;;;;8.95;3.65;;;;;;;10.62;75.80;97848.06;4848269;29;20119;-80
2021/01/24 01:20:29;;;;;;;2.95;1.70;;;;;;;10.63;75.48;97833.63;4860272;29;20080;-81
2021/01/24 01:22:55;;;;;;;4.60;2.45;;;;;;;10.65;75.84;97842.09;4859852;29;20465;-80
2021/01/24 01:25:20;;;;;;;3.03;2.20;;;;;;;10.67;75.52;97839.91;4863862;29;20021;-82
2021/01/24 01:27:46;;;;;;;6.75;2.42;;;;;;;10.68;75.14;97827.31;4863584;29;20112;-78
2021/01/24 01:30:12;;;;;;;8.00;2.38;;;;;;;10.67;74.68;97821.19;4863575;29;20021;-82
2021/01/24 01:32:37;;;;;;;4.43;2.17;;;;;;;10.67;74.39;97813.19;4863473;29;20028;-79
2021/01/24 01:35:04;;;;;;;1.90;1.20;;;;;;;10.70;73.57;97809.09;4863426;29;20398;-80
2021/01/24 01:37:30;;;;;;;4.03;1.98;;;;;;;10.68;73.41;97812.09;4863684;29;20036;-77
2021/01/24 01:39:55;;;;;;;1.60;1.05;;;;;;;10.72;72.92;97806.91;4880770;29;20029;-78
2021/01/24 01:42:21;;;;;;;6.15;1.75;;;;;;;10.69;72.52;97802.16;4863410;29;20485;-77
2021/01/24 01:44:47;;;;;;;3.90;2.03;;;;;;;10.73;72.43;97811.19;4862938;29;20032;-77
2021/01/24 01:47:25;;;;;;;3.72;2.33;;;;;;;10.74;72.60;97818.06;4862410;29;20029;-77
2021/01/24 01:49:55;;;;;;;5.30;1.60;;;;;;;10.74;71.90;97818.06;4879556;29;20036;-77
2021/01/24 01:52:31;;;;;;;4.00;1.52;;;;;;;10.77;72.28;97816.69;4880327;29;20642;-80
2021/01/24 01:54:57;;;;;;;3.85;2.03;;;;;;;10.76;71.96;97807.88;4863596;29;20053;-79
2021/01/24 01:57:24;;;;;;;4.20;1.95;;;;;;;10.77;71.61;97809.47;4863497;29;20650;-79
2021/01/24 01:59:50;;;;;;;5.13;1.58;;;;;;;10.77;71.79;97808.69;4862508;29;20044;-78
2021/01/24 02:02:53;;;;;;;3.00;1.92;;;;;;;10.78;71.85;97810.22;4863042;29;20029;-79
2021/01/24 02:05:28;;;;;;;5.38;2.00;;;;;;;10.77;71.71;97801.44;4863169;29;20037;-81
2021/01/24 02:08:20;;;;;;;3.63;1.20;;;;;;;10.76;71.56;97805.19;4862916;29;20033;-82
2021/01/24 02:10:58;;;;;;;3.00;1.55;;;;;;;10.76;71.74;97818.56;4863043;29;20379;-83
2021/01/24 02:13:54;;;;;;;7.28;2.33;;;;;;;10.76;71.62;97804.41;4862806;29;20482;-80
2021/01/24 02:16:21;;;;;;;8.68;1.92;;;;;;;10.73;71.77;97793.22;4847025;29;20565;-83
2021/01/24 02:18:50;;;;;;;2.05;1.15;;;;;;;10.72;71.88;97778.28;4862465;29;20033;-78
2021/01/24 02:21:24;;;;;;;2.50;2.25;;;;;;;10.69;71.95;97776.25;4862599;29;20128;-78
2021/01/24 02:23:53;;;;;;;4.03;1.48;;;;;;;10.70;71.81;97772.44;4862796;29;20040;-79
2021/01/24 02:26:46;;;;;;;3.85;1.70;;;;;;;10.69;71.87;97767.41;4863050;29;20127;-79
2021/01/24 02:29:30;;;;;;;3.50;2.15;;;;;;;10.67;71.96;97774.97;4862306;29;20053;-76
2021/01/24 02:32:00;;;;;;;3.55;2.15;;;;;;;10.69;71.87;97778.09;4862328;29;20056;-88
2021/01/24 02:34:29;;;;;;;1.73;1.20;;;;;;;10.68;71.46;97758.63;4862764;29;20033;-81
2021/01/24 02:36:56;;;;;;;5.47;2.42;;;;;;;10.67;72.14;97769.63;4862526;29;20088;-79
2021/01/24 02:39:22;;;;;;;4.00;2.38;;;;;;;10.66;71.86;97768.03;4862740;29;20025;-78
2021/01/24 02:41:48;;;;;;;4.75;2.22;;;;;;;10.64;72.24;97749.63;4862489;29;20542;-80
2021/01/24 02:44:14;;;;;;;3.08;1.98;;;;;;;10.64;71.93;97752.28;4861982;29;20200;-81
2021/01/24 02:46:40;;;;;;;4.72;2.20;;;;;;;10.63;71.85;97752.59;4861912;29;20032;-76
2021/01/24 02:49:07;;;;;;;3.08;1.85;;;;;;;10.62;72.04;97743.00;4878728;29;20116;-78
2021/01/24 02:51:33;;;;;;;3.80;1.65;;;;;;;10.61;72.01;97738.75;4862295;29;20037;-78
2021/01/24 02:54:00;;;;;;;3.08;1.65;;;;;;;10.58;72.07;97740.16;4878967;29;20221;-77
2021/01/24 02:56:26;;;;;;;5.07;2.22;;;;;;;10.57;72.12;97743.94;4862423;29;20036;-77
2021/01/24 02:58:52;;;;;;;4.10;1.77;;;;;;;10.56;72.02;97761.09;4861473;29;20033;-78
2021/01/24 03:01:17;;;;;;;3.55;1.80;;;;;;;10.55;72.00;97764.84;4860989;29;20048;-78
2021/01/24 03:03:43;;;;;;;6.20;2.08;;;;;;;10.55;72.17;97756.81;4861506;29;20033;-78
2021/01/24 03:06:10;;;;;;;3.20;1.88;;;;;;;10.52;72.02;97755.56;4879119;29;20041;-79
2021/01/24 03:08:36;;;;;;;2.42;1.83;;;;;;;10.51;72.12;97745.16;4861933;29;20029;-77
2021/01/24 03:11:04;;;;;;;2.97;2.15;;;;;;;10.52;72.19;97742.19;4862160;29;20025;-77
2021/01/24 03:13:42;;;;;;;7.07;2.80;;;;;;;10.48;72.28;97740.44;4861089;29;20041;-77
2021/01/24 03:16:09;;;;;;;4.60;2.00;;;;;;;10.49;72.26;97742.00;4874905;29;20025;-76
2021/01/24 03:18:38;;;;;;;3.92;1.92;;;;;;;10.48;72.55;97745.78;4860449;29;20030;-74
2021/01/24 03:21:05;;;;;;;2.88;1.73;;;;;;;10.46;72.55;97742.63;4860812;29;20029;-78
2021/01/24 03:23:33;;;;;;;2.58;1.70;;;;;;;10.43;72.91;97736.00;4878127;29;20032;-77
2021/01/24 03:26:00;;;;;;;3.97;1.80;;;;;;;10.44;72.57;97737.59;4878143;29;20509;-75
2021/01/24 03:28:25;;;;;;;5.90;1.90;;;;;;;10.41;72.28;97744.34;4877881;29;20514;-76
2021/01/24 03:30:51;;;;;;;3.25;1.55;;;;;;;10.40;72.31;97748.09;4861272;29;20104;-76
2021/01/24 03:33:17;;;;;;;9.13;1.73;;;;;;;10.38;71.92;97736.91;4878725;29;20029;-78
2021/01/24 03:35:43;;;;;;;3.55;1.63;;;;;;;10.38;72.37;97747.59;4877777;29;20619;-75
2021/01/24 03:38:09;;;;;;;3.58;1.23;;;;;;;10.37;72.20;97747.91;4877918;29;20143;-77
2021/01/24 03:40:34;;;;;;;6.82;1.52;;;;;;;10.33;71.76;97746.94;4861682;29;20575;-76
2021/01/24 03:42:59;;;;;;;2.55;1.52;;;;;;;10.35;72.14;97752.75;4876836;29;20395;-75
2021/01/24 03:45:25;;;;;;;1.92;1.45;;;;;;;10.35;71.54;97756.22;4860928;29;20029;-77
2021/01/24 03:47:51;;;;;;;6.70;1.73;;;;;;;10.35;71.67;97753.56;4860917;29;20062;-78
2021/01/24 03:50:16;;;;;;;7.13;2.10;;;;;;;10.33;71.50;97745.03;4861232;29;20085;-78
2021/01/24 03:52:42;;;;;;;3.92;1.45;;;;;;;10.34;71.19;97749.28;4861178;29;20120;-78
2021/01/24 03:55:07;;;;;;;3.58;1.73;;;;;;;10.33;71.18;97749.59;4861433;29;20177;-78
2021/01/24 03:57:34;;;;;;;5.45;2.42;;;;;;;10.36;70.81;97748.97;4877294;29;20028;-77
2021/01/24 03:59:59;;;;;;;3.63;1.88;;;;;;;10.35;71.08;97748.19;4860622;29;20040;-78
2021/01/24 04:02:24;;;;;;;4.40;1.95;;;;;;;10.37;71.11;97758.59;4860976;29;20031;-79
2021/01/24 04:04:50;;;;;;;8.32;2.40;;;;;;;10.38;70.58;97757.53;4860479;29;20036;-80
2021/01/24 04:07:16;;;;;;;5.95;1.55;;;;;;;10.37;71.07;97739.91;4861127;29;20029;-78
2021/01/24 04:09:44;;;;;;;5.10;1.75;;;;;;;10.36;71.08;97749.81;4861032;29;20032;-81
2021/01/24 04:12:10;;;;;;;2.83;1.48;;;;;;;10.36;71.35;97751.66;4860963;29;20033;-87
2021/01/24 04:14:37;;;;;;;3.83;2.28;;;;;;;10.35;71.01;97745.53;4845210;29;20036;-80
2021/01/24 04:17:03;;;;;;;4.03;2.28;;;;;;;10.34;71.12;97748.50;4860364;29;20013;-79
2021/01/24 04:19:29;;;;;;;2.85;2.17;;;;;;;10.31;71.57;97747.22;4860404;29;20044;-80
2021/01/24 04:21:55;;;;;;;6.38;2.22;;;;;;;10.32;71.82;97759.50;4860249;29;20414;-84
2021/01/24 04:24:20;;;;;;;3.38;2.05;;;;;;;10.32;71.19;97756.03;4861012;29;20028;-80
2021/01/24 04:26:45;;;;;;;2.83;1.73;;;;;;;10.29;71.62;97741.41;4860056;29;20074;-80
2021/01/24 04:29:11;;;;;;;2.65;2.10;;;;;;;10.29;71.58;97762.78;4860653;29;20029;-77
2021/01/24 04:31:36;;;;;;;3.95;2.05;;;;;;;10.27;71.37;97767.63;4860905;29;20104;-79
2021/01/24 04:34:02;;;;;;;5.13;2.50;;;;;;;10.25;71.51;97764.47;4860617;29;20112;-79
2021/01/24 04:36:27;;;;;;;2.83;2.08;;;;;;;10.27;71.50;97764.97;4860329;29;20597;-80
2021/01/24 04:38:53;;;;;;;6.75;2.60;;;;;;;10.26;71.71;97760.72;4860258;29;20029;-76
2021/01/24 04:41:18;;;;;;;5.90;2.15;;;;;;;10.22;71.36;97755.19;4869063;29;20048;-76
2021/01/24 04:43:46;;;;;;;10.63;4.15;;;;;;;10.20;71.44;97754.69;4872769;29;20083;-77
2021/01/24 04:46:12;;;;;;;3.53;2.10;;;;;;;10.22;71.30;97775.78;4876952;29;20482;-78
2021/01/24 04:48:38;;;;;;;5.25;2.65;;;;;;;10.22;71.16;97783.81;4860153;29;20081;-76
2021/01/24 04:51:05;;;;;;;5.00;2.22;;;;;;;10.21;71.31;97783.00;4860013;29;20146;-77
2021/01/24 04:53:32;;;;;;;6.68;2.67;;;;;;;10.20;71.25;97794.00;4860525;29;20431;-77
2021/01/24 04:55:58;;;;;;;5.68;2.30;;;;;;;10.22;71.11;97802.50;4877103;29;20032;-78
2021/01/24 04:58:24;;;;;;;6.15;2.72;;;;;;;10.21;71.27;97809.72;4877015;29;20072;-77
2021/01/24 05:00:50;;;;;;;4.22;2.50;;;;;;;10.21;70.98;97807.03;4860342;29;20064;-78
2021/01/24 05:03:15;;;;;;;8.35;2.67;;;;;;;10.22;71.13;97813.19;4860608;29;20056;-78
2021/01/24 05:05:41;;;;;;;5.18;2.88;;;;;;;10.25;70.99;97825.94;4875634;29;20037;-78
2021/01/24 05:08:09;;;;;;;6.70;2.45;;;;;;;10.23;70.62;97828.13;4860175;29;20076;-76
2021/01/24 05:10:35;;;;;;;5.78;2.38;;;;;;;10.22;70.82;97826.56;4877323;29;20025;-76
2021/01/24 05:13:00;;;;;;;4.13;2.17;;;;;;;10.20;70.73;97828.72;4876469;29;20657;-76
2021/01/24 05:15:27;;;;;;;6.97;2.92;;;;;;;10.21;70.76;97833.75;4876491;29;20096;-77
2021/01/24 05:17:58;;;;;;;3.42;2.63;;;;;;;10.18;70.70;97837.06;4859574;29;20065;-78
2021/01/24 05:20:26;;;;;;;4.03;3.28;;;;;;;10.21;70.75;97838.31;4860044;29;20035;-77
2021/01/24 05:22:53;;;;;;;5.07;2.00;;;;;;;10.15;70.85;97847.56;4860018;29;20101;-76
2021/01/24 05:25:30;;;;;;;6.10;3.22;;;;;;;10.14;70.53;97860.09;4860368;29;20040;-78
2021/01/24 05:27:57;;;;;;;5.43;2.25;;;;;;;10.13;70.90;97879.94;4859554;29;20439;-81
2021/01/24 05:30:29;;;;;;;4.13;1.40;;;;;;;10.08;70.68;97874.66;4860345;29;20120;-76
2021/01/24 05:32:57;;;;;;;5.55;2.30;;;;;;;10.09;70.93;97890.41;4860083;29;20033;-77
2021/01/24 05:35:23;;;;;;;3.78;1.67;;;;;;;10.07;71.03;97895.25;4860095;29;20101;-77
2021/01/24 05:37:49;;;;;;;4.25;2.33;;;;;;;10.08;71.26;97898.72;4859897;29;20044;-83
2021/01/24 05:40:15;;;;;;;6.63;3.72;;;;;;;10.10;70.76;97907.22;4860248;29;20060;-79
2021/01/24 05:42:41;;;;;;;9.10;5.20;;;;;;;10.10;70.57;97896.53;4859764;29;20033;-81
2021/01/24 05:45:14;;;;;;;14.52;7.68;;;;;;;10.11;70.59;97898.13;4859988;29;20469;-80
2021/01/24 05:47:47;;;;;;;17.55;8.35;;;;;;;10.10;70.58;97893.88;4876438;29;20036;-77
2021/01/24 05:50:14;;;;;;;11.52;6.15;;;;;;;10.09;70.78;97906.44;4859544;29;20032;-78
2021/01/24 05:52:45;;;;;;;11.00;6.25;;;;;;;10.11;70.39;97903.47;4861308;29;20112;-77
2021/01/24 05:55:28;;;;;;;5.88;3.95;;;;;;;10.07;70.83;97905.16;4863413;29;20446;-77
2021/01/24 05:57:53;;;;;;;6.00;4.93;;;;;;;9.90;70.06;97919.94;4863173;29;20064;-79
2021/01/24 06:00:19;;;;;;;12.13;4.22;;;;;;;9.83;70.33;97927.53;4863352;29;20116;-78
2021/01/24 06:02:45;;;;;;;4.63;3.22;;;;;;;9.77;70.38;97936.75;4862213;29;20044;-78
2021/01/24 06:05:11;;;;;;;6.47;3.47;;;;;;;9.72;70.69;97937.63;4862129;29;20029;-78
2021/01/24 06:07:36;;;;;;;4.57;3.38;;;;;;;9.70;70.88;97944.38;4862295;29;20566;-77
2021/01/24 06:10:02;;;;;;;5.95;3.33;;;;;;;9.71;70.52;97943.28;4858871;29;20044;-75
2021/01/24 06:12:29;;;;;;;5.65;3.92;;;;;;;9.72;70.43;97940.31;4860850;29;20029;-74
2021/01/24 06:14:55;;;;;;;11.43;6.93;;;;;;;9.74;70.28;97943.47;4859284;29;20026;-78
2021/01/24 06:17:44;;;;;;;11.90;6.03;;;;;;;9.77;69.86;97950.88;4871387;29;20025;-79
2021/01/24 06:20:13;;;;;;;11.68;6.97;;;;;;;9.82;69.99;97949.22;4862262;29;20041;-78
2021/01/24 06:22:52;;;;;;;16.52;9.32;;;;;;;9.85;70.04;97945.94;4862112;29;20053;-79
2021/01/24 06:25:25;;;;;;;15.40;9.25;;;;;;;9.86;69.55;97947.53;4861926;29;20582;-79
2021/01/24 06:27:54;;;;;;;14.30;7.53;;;;;;;9.85;69.96;97938.72;4861874;29;20032;-79
2021/01/24 06:30:22;;;;;;;12.43;7.97;;;;;;;9.83;69.52;97946.25;4862192;29;20029;-78
2021/01/24 06:32:47;;;;;;;59.55;36.72;;;;;;;9.76;69.75;97937.84;4861901;29;20029;-77
2021/01/24 06:35:19;;;;;;;38.33;21.00;;;;;;;9.70;69.63;97926.44;4862136;29;20029;-77
2021/01/24 06:38:01;;;;;;;23.38;13.50;;;;;;;9.66;70.10;97932.72;4879058;29;20033;-78
2021/01/24 06:40:31;;;;;;;15.80;9.18;;;;;;;9.65;69.75;97933.78;4862264;29;20044;-77
2021/01/24 06:42:59;;;;;;;22.88;12.23;;;;;;;9.66;69.58;97930.03;4861482;29;20028;-76
2021/01/24 06:45:24;;;;;;;15.32;9.95;;;;;;;9.69;69.67;97935.56;4861047;29;20153;-78
2021/01/24 06:47:50;;;;;;;18.10;10.50;;;;;;;9.75;69.18;97928.25;4858411;29;20476;-79
2021/01/24 06:50:40;;;;;;;23.58;13.85;;;;;;;9.83;69.42;97937.44;4858948;29;20463;-78
2021/01/24 06:53:09;;;;;;;21.92;12.95;;;;;;;9.91;69.50;97932.19;4861465;29;20028;-81
2021/01/24 06:55:36;;;;;;;14.68;10.73;;;;;;;10.04;69.56;97951.94;4861676;29;20517;-77
2021/01/24 06:58:21;;;;;;;18.23;12.30;;;;;;;10.22;69.25;97957.47;4851425;29;20391;-78
2021/01/24 07:00:47;;;;;;;21.88;14.02;;;;;;;10.36;69.13;97955.59;4855635;29;20025;-82
2021/01/24 07:03:20;;;;;;;37.40;15.38;;;;;;;10.51;68.16;97962.47;4858286;29;20614;-81
2021/01/24 07:05:46;;;;;;;26.48;12.90;;;;;;;10.65;67.27;97967.75;4842307;29;20059;-84
2021/01/24 07:08:32;;;;;;;18.58;9.85;;;;;;;10.83;66.23;97965.25;4842791;29;20024;-82
2021/01/24 07:10:57;;;;;;;15.65;8.82;;;;;;;10.98;65.26;97967.53;4842311;29;20029;-83
2021/01/24 07:13:26;;;;;;;21.60;11.43;;;;;;;11.16;64.84;97973.00;4842943;29;20021;-81
2021/01/24 07:16:07;;;;;;;22.38;12.35;;;;;;;11.29;63.59;97961.44;4847502;29;20033;-80
2021/01/24 07:18:46;;;;;;;23.83;13.75;;;;;;;11.43;63.20;97973.94;4860069;29;20032;-79
2021/01/24 07:21:11;;;;;;;;;;;;;;;11.57;62.62;97996.06;4846832;29;20129;-78
2021/01/24 07:23:38;;;;;;;15.82;9.20;;;;;;;11.69;62.12;97998.13;4842801;29;19991;-82
2021/01/24 07:26:05;;;;;;;12.63;8.38;;;;;;;11.80;62.00;98007.50;4846078;29;20037;-85
2021/01/24 07:28:33;;;;;;;13.02;7.30;;;;;;;11.94;62.02;98001.25;4842457;29;20440;-84
2021/01/24 07:31:04;;;;;;;9.95;6.45;;;;;;;12.05;61.48;97997.19;4842341;29;20398;-81
2021/01/24 07:33:30;;;;;;;10.77;6.65;;;;;;;12.13;61.09;97991.06;4843060;29;20022;-77
2021/01/24 07:36:00;;;;;;;9.95;6.03;;;;;;;12.25;61.37;97984.31;4843003;29;20021;-81
2021/01/24 07:38:26;;;;;;;11.63;6.68;;;;;;;12.34;60.49;97990.50;4860039;29;20407;-83
2021/01/24 07:40:54;;;;;;;8.73;5.72;;;;;;;12.42;59.65;97994.28;4844905;29;20032;-90
2021/01/24 07:43:19;;;;;;;9.30;5.07;;;;;;;12.52;59.28;97988.59;4861567;29;20533;-79
2021/01/24 07:45:46;;;;;;;6.15;4.32;;;;;;;12.60;59.14;97997.75;4860916;29;20111;-79
2021/01/24 07:48:14;;;;;;;6.32;4.47;;;;;;;12.67;58.65;97997.28;4853703;29;20025;-84
2021/01/24 07:50:40;;;;;;;10.45;5.43;;;;;;;12.75;58.72;97993.81;4845517;29;20043;-88
2021/01/24 07:53:08;;;;;;;11.20;6.22;;;;;;;12.82;58.67;97994.91;4855665;29;20064;-90
2021/01/24 07:55:35;;;;;;;9.60;5.82;;;;;;;12.89;57.09;97993.63;4845729;29;20029;-85
2021/01/24 07:58:01;;;;;;;10.50;5.50;;;;;;;12.91;57.15;97994.91;4841218;29;20065;-87
2021/01/24 08:00:27;;;;;;;9.32;5.85;;;;;;;12.94;57.06;97996.19;4845497;29;20377;-77
2021/01/24 08:02:52;;;;;;;9.05;6.03;;;;;;;13.01;57.20;97999.19;4853400;29;20033;-80
2021/01/24 08:05:17;;;;;;;11.35;5.57;;;;;;;13.08;56.84;97996.78;4856764;29;20541;-77
2021/01/24 08:07:43;;;;;;;9.43;5.90;;;;;;;13.18;57.08;98000.25;4839193;29;20030;-79
2021/01/24 08:10:09;;;;;;;13.88;5.63;;;;;;;13.24;57.31;98009.72;4865178;29;20045;-84
2021/01/24 08:12:35;;;;;;;7.88;4.65;;;;;;;13.32;54.94;98010.78;4841293;29;20057;-82
2021/01/24 08:15:00;;;;;;;9.27;4.78;;;;;;;13.35;55.25;98012.84;4852182;29;20056;-88
2021/01/24 08:17:27;;;;;;;9.18;3.80;;;;;;;13.44;55.70;98010.97;4855413;29;20033;-79
2021/01/24 08:19:53;;;;;;;5.43;3.00;;;;;;;13.48;54.70;98014.59;4840583;29;20643;-76
2021/01/24 08:22:23;;;;;;;3.65;2.88;;;;;;;13.56;53.92;98029.91;4856169;29;20049;-78
2021/01/24 08:24:49;;;;;;;4.10;2.55;;;;;;;13.63;53.37;98036.66;4859835;29;20032;-76
2021/01/24 08:27:14;;;;;;;3.28;2.70;;;;;;;13.71;52.48;98044.69;4875524;29;20084;-76
2021/01/24 08:29:40;;;;;;;3.70;2.30;;;;;;;13.79;52.57;98039.63;4859262;29;20017;-79
2021/01/24 08:32:06;;;;;;;3.35;3.03;;;;;;;13.86;51.49;98039.91;4853207;29;20033;-76
2021/01/24 08:34:33;;;;;;;1.67;1.13;;;;;;;13.95;50.24;98040.66;4874100;29;20039;-76
2021/01/24 08:36:59;;;;;;;1.75;1.65;;;;;;;14.03;50.75;98025.63;4856077;29;20030;-79
2021/01/24 08:39:25;;;;;;;4.25;2.05;;;;;;;14.12;50.21;98028.25;4854033;29;20029;-76
2021/01/24 08:41:52;;;;;;;1.85;1.52;;;;;;;14.19;49.75;98023.94;4875425;29;20032;-76
2021/01/24 08:44:18;;;;;;;2.03;1.45;;;;;;;14.24;49.42;98020.28;4875258;29;20104;-77
2021/01/24 08:46:48;;;;;;;3.35;2.05;;;;;;;14.31;49.34;98020.56;4858597;29;20135;-78
2021/01/24 08:49:19;;;;;;;2.65;1.75;;;;;;;14.38;48.93;98026.22;4858720;29;20497;-77
2021/01/24 08:51:56;;;;;;;1.98;1.33;;;;;;;14.42;48.14;98018.28;4859910;29;20399;-77
2021/01/24 08:54:33;;;;;;;3.95;2.35;;;;;;;14.46;48.72;98024.56;4858951;29;20029;-77
2021/01/24 08:57:12;;;;;;;2.42;1.80;;;;;;;14.49;48.24;98015.84;4855822;29;20060;-86
2021/01/24 08:59:39;;;;;;;4.35;2.13;;;;;;;14.54;48.04;98009.50;4851055;29;20044;-82
2021/01/24 09:02:06;;;;;;;1.80;1.38;;;;;;;14.59;47.59;98012.00;4857395;29;20029;-87
2021/01/24 09:04:34;;;;;;;4.38;1.80;;;;;;;14.61;47.62;98003.59;4858659;29;20024;-88
2021/01/24 09:07:02;;;;;;;2.53;1.88;;;;;;;14.63;47.28;97999.44;4854867;29;20436;-86
2021/01/24 09:09:28;;;;;;;4.55;1.63;;;;;;;14.63;47.51;97999.44;4847989;29;20033;-78
2021/01/24 09:11:54;;;;;;;7.00;3.85;;;;;;;14.68;46.75;98001.19;4858966;29;20045;-79
2021/01/24 09:14:20;;;;;;;3.22;2.22;;;;;;;14.68;47.33;97995.81;4851400;29;20078;-85
2021/01/24 09:17:14;;;;;;;2.55;1.65;;;;;;;14.72;47.11;97994.81;4853811;29;20033;-78
2021/01/24 09:19:41;;;;;;;8.00;2.40;;;;;;;14.80;46.42;98000.47;4846681;29;20043;-78
2021/01/24 09:22:13;;;;;;;4.30;2.37;;;;;;;14.82;46.69;97992.84;4858516;29;20395;-78
2021/01/24 09:24:39;;;;;;;2.97;1.77;;;;;;;14.88;46.32;97994.22;4858853;29;20138;-79
2021/01/24 09:27:06;;;;;;;5.65;2.95;;;;;;;14.92;45.76;97994.34;4859508;29;20041;-79
2021/01/24 09:29:33;;;;;;;3.42;2.30;;;;;;;14.97;45.69;97997.63;4862608;29;20394;-79
2021/01/24 09:31:58;;;;;;;4.45;2.08;;;;;;;14.99;45.03;98000.78;4863062;29;20478;-79
2021/01/24 09:34:24;;;;;;;2.15;1.95;;;;;;;15.05;45.70;98004.84;4863106;29;20028;-79
2021/01/24 09:36:49;;;;;;;5.70;2.80;;;;;;;15.07;45.94;98001.03;4863300;29;20039;-79
2021/01/24 09:39:15;;;;;;;2.72;2.15;;;;;;;15.11;46.31;98000.03;4862681;29;20114;-78
2021/01/24 09:41:41;;;;;;;4.63;2.72;;;;;;;15.15;46.23;97990.16;4862858;29;20039;-79
2021/01/24 09:44:07;;;;;;;1.88;1.77;;;;;;;15.18;44.08;97989.50;4862720;29;20029;-79
2021/01/24 09:46:33;;;;;;;2.55;1.80;;;;;;;15.24;43.66;97982.00;4862622;29;20029;-79
2021/01/24 09:48:58;;;;;;;2.67;1.83;;;;;;;15.28;43.34;97985.63;4862049;29;20052;-79
2021/01/24 09:51:24;;;;;;;2.67;1.50;;;;;;;15.32;42.71;97980.34;4862926;29;20036;-79
2021/01/24 09:53:52;;;;;;;6.57;2.90;;;;;;;15.35;43.25;97976.97;4862789;29;20108;-78
2021/01/24 09:56:18;;;;;;;3.60;2.15;;;;;;;15.39;44.23;97975.16;4862798;29;20114;-79
2021/01/24 09:58:44;;;;;;;4.03;2.22;;;;;;;15.44;43.96;97985.75;4844277;29;20158;-79
2021/01/24 10:01:09;;;;;;;4.40;2.78;;;;;;;15.47;43.80;97987.00;4844079;29;20395;-78
2021/01/24 10:03:36;;;;;;;2.65;1.58;;;;;;;15.50;44.61;97976.34;4844722;29;20479;-79
2021/01/24 10:06:02;;;;;;;2.15;1.52;;;;;;;15.48;44.91;97975.09;4843918;29;20043;-78
2021/01/24 10:08:27;;;;;;;4.80;2.22;;;;;;;15.45;45.52;97970.38;4844212;29;20116;-78
2021/01/24 10:10:53;;;;;;;1.67;1.58;;;;;;;15.39;45.15;97966.31;4844513;29;20036;-78
2021/01/24 10:13:18;;;;;;;2.50;1.90;;;;;;;15.28;45.05;97969.44;4843981;29;20041;-78
2021/01/24 10:15:52;;;;;;;3.40;2.17;;;;;;;15.25;45.51;97974.72;4844366;29;20041;-78
2021/01/24 10:18:21;;;;;;;3.97;2.05;;;;;;;15.21;45.82;97974.59;4842396;29;20036;-79
2021/01/24 10:20:47;;;;;;;3.05;2.17;;;;;;;15.16;45.19;97972.09;4841728;29;20439;-78
2021/01/24 10:23:12;;;;;;;5.65;2.00;;;;;;;15.12;45.19;97961.19;4859976;29;20128;-78
2021/01/24 10:25:39;;;;;;;3.95;2.08;;;;;;;15.09;45.67;97964.56;4842723;29;20222;-79
2021/01/24 10:28:05;;;;;;;2.70;2.40;;;;;;;15.07;45.37;97961.41;4859018;29;20081;-79
2021/01/24 10:30:30;;;;;;;4.32;1.85;;;;;;;15.01;45.01;97958.16;4842498;29;20558;-78
2021/01/24 10:32:56;;;;;;;2.47;1.65;;;;;;;15.05;45.68;97961.75;4842730;29;20025;-78
2021/01/24 10:35:21;;;;;;;2.67;1.88;;;;;;;15.09;45.86;97967.25;4842482;29;20030;-78
2021/01/24 10:37:48;;;;;;;2.42;2.03;;;;;;;15.11;46.17;97953.47;4858848;29;20026;-78
2021/01/24 10:40:13;;;;;;;6.03;2.58;;;;;;;15.14;45.51;97966.28;4840055;29;20029;-78
2021/01/24 10:42:40;;;;;;;3.42;1.77;;;;;;;15.17;44.96;97963.69;4843363;29;20108;-78
2021/01/24 10:45:07;;;;;;;4.00;2.35;;;;;;;15.19;44.95;97953.34;4842836;29;20121;-78
2021/01/24 10:47:32;;;;;;;4.93;2.53;;;;;;;15.19;44.37;97955.28;4843257;29;20026;-78
2021/01/24 10:49:58;;;;;;;5.00;2.28;;;;;;;15.24;44.68;97940.81;4843762;29;20036;-79
2021/01/24 10:52:23;;;;;;;1.65;1.55;;;;;;;15.24;44.31;97952.38;4841812;29;20033;-78
2021/01/24 10:54:49;;;;;;;3.50;1.83;;;;;;;15.28;44.58;97949.78;4842056;29;20029;-78
2021/01/24 10:57:14;;;;;;;1.60;1.50;;;;;;;15.30;42.93;97942.16;4859738;29;20627;-78
2021/01/24 10:59:40;;;;;;;2.83;2.15;;;;;;;15.33;43.53;97950.38;4842483;29;20360;-80
2021/01/24 11:02:05;;;;;;;5.05;2.47;;;;;;;15.38;43.02;97952.06;4842679;29;20059;-77
2021/01/24 11:04:32;;;;;;;4.43;2.20;;;;;;;15.39;42.90;97950.94;4843072;29;20025;-80
2021/01/24 11:06:57;;;;;;;10.45;5.47;;;;;;;15.43;42.79;97956.44;4843703;29;20034;-79
2021/01/24 11:09:24;;;;;;;5.13;2.33;;;;;;;15.44;42.59;97956.13;4842807;29;20451;-79
2021/01/24 11:11:49;;;;;;;4.78;2.25;;;;;;;15.46;41.73;97947.69;4843126;29;20033;-79
2021/01/24 11:14:15;;;;;;;2.53;1.60;;;;;;;15.48;41.80;97934.69;4842368;29;20054;-79
2021/01/24 11:16:40;;;;;;;3.35;2.03;;;;;;;15.47;40.90;97943.88;4842571;29;20029;-79
2021/01/24 11:19:05;;;;;;;2.58;1.45;;;;;;;15.49;40.82;97947.00;4842010;29;20112;-78
2021/01/24 11:21:31;;;;;;;3.65;2.42;;;;;;;15.51;39.97;97944.78;4841787;29;20408;-79
2021/01/24 11:23:56;;;;;;;2.30;1.50;;;;;;;15.52;39.95;97944.44;4856054;29;20164;-79
2021/01/24 11:26:22;;;;;;;4.03;2.17;;;;;;;15.57;40.79;97945.34;4859920;29;20021;-79
2021/01/24 11:28:48;;;;;;;3.08;2.17;;;;;;;15.60;40.09;97944.66;4860750;29;20104;-81
2021/01/24 11:31:13;;;;;;;2.78;1.75;;;;;;;15.62;40.04;97950.50;4860820;29;20024;-79
2021/01/24 11:33:38;;;;;;;3.25;1.80;;;;;;;15.69;40.69;97951.50;4860284;29;20032;-80
2021/01/24 11:36:04;;;;;;;5.22;2.13;;;;;;;15.75;39.21;97943.22;4860114;29;20036;-79
2021/01/24 11:38:29;;;;;;;3.80;2.65;;;;;;;15.81;39.42;97941.88;4860857;29;20470;-79